createdAt,value
2018-03-16T00:01:58.569Z,90.90
2018-03-16T00:04:01.946Z,90.90
2018-03-16T00:06:06.070Z,91.00
2018-03-16T00:08:09.416Z,90.80
2018-03-16T00:10:12.755Z,90.70
2018-03-16T00:12:16.147Z,90.60
2018-03-16T00:14:19.458Z,90.70
2018-03-16T00:16:23.633Z,90.80
2018-03-16T00:18:26.970Z,90.80
2018-03-16T00:20:31.051Z,90.60
2018-03-16T00:22:39.400Z,90.60
2018-03-16T00:24:42.779Z,90.70
2018-03-16T00:26:46.861Z,90.50
2018-03-16T00:28:50.172Z,90.50
2018-03-16T00:30:54.028Z,90.70
2018-03-16T00:32:57.363Z,90.70
2018-03-16T00:35:00.707Z,90.80
2018-03-16T00:37:04.043Z,90.70
2018-03-16T00:39:07.384Z,90.60
2018-03-16T00:41:10.740Z,90.70
2018-03-16T00:43:14.893Z,90.50
2018-03-16T00:45:18.213Z,90.60
2018-03-16T00:47:21.522Z,90.90
2018-03-16T00:49:25.610Z,90.90
2018-03-16T00:51:28.969Z,90.90
2018-03-16T00:53:32.296Z,90.90
2018-03-16T00:55:35.631Z,90.80
2018-03-16T00:57:38.940Z,90.70
2018-03-16T00:59:42.268Z,90.60
2018-03-16T01:01:45.629Z,90.40
2018-03-16T01:03:48.956Z,90.40
2018-03-16T01:05:53.085Z,90.50
2018-03-16T01:07:57.199Z,90.30
2018-03-16T01:10:01.335Z,90.70
2018-03-16T01:12:04.734Z,90.60
2018-03-16T01:14:08.068Z,90.60
2018-03-16T01:16:11.444Z,90.60
2018-03-16T01:18:15.594Z,90.70
2018-03-16T01:20:19.017Z,90.40
2018-03-16T01:22:22.329Z,90.20
2018-03-16T01:24:25.662Z,90.50
2018-03-16T01:26:29.174Z,90.30
2018-03-16T01:28:32.645Z,90.30
2018-03-16T01:30:36.018Z,90.60
2018-03-16T01:32:39.378Z,90.50
2018-03-16T01:34:42.702Z,90.20
2018-03-16T01:36:46.052Z,90.60
2018-03-16T01:38:49.373Z,90.40
2018-03-16T01:40:52.693Z,90.50
2018-03-16T01:42:56.783Z,90.70
2018-03-16T01:45:00.101Z,90.70
2018-03-16T01:47:03.488Z,90.40
2018-03-16T01:49:07.464Z,90.80
2018-03-16T01:51:10.860Z,90.60
2018-03-16T01:53:17.783Z,90.60
2018-03-16T01:55:21.100Z,90.60
2018-03-16T01:57:24.452Z,90.70
2018-03-16T01:59:27.779Z,90.60
2018-03-16T02:01:31.181Z,90.70
2018-03-16T02:03:35.317Z,91.00
2018-03-16T02:05:38.636Z,90.90
2018-03-16T02:07:41.968Z,90.80
2018-03-16T02:09:45.328Z,90.80
2018-03-16T02:11:48.714Z,90.70
2018-03-16T02:13:52.047Z,90.80
2018-03-16T02:15:55.370Z,90.90
2018-03-16T02:17:58.678Z,90.70
2018-03-16T02:20:02.759Z,90.90
2018-03-16T02:22:06.868Z,91.00
2018-03-16T02:24:11.966Z,91.40
2018-03-16T02:26:15.281Z,91.10
2018-03-16T02:28:18.581Z,91.00
2018-03-16T02:30:21.888Z,91.00
2018-03-16T02:32:26.001Z,91.50
2018-03-16T02:34:29.352Z,91.20
2018-03-16T02:36:32.685Z,91.30
2018-03-16T02:38:35.989Z,90.90
2018-03-16T02:40:40.085Z,91.30
2018-03-16T02:42:44.161Z,91.50
2018-03-16T02:44:47.481Z,91.30
2018-03-16T02:46:50.807Z,91.30
2018-03-16T02:48:54.385Z,91.60
2018-03-16T02:50:57.720Z,91.40
2018-03-16T02:53:01.036Z,91.50
2018-03-16T02:55:04.351Z,91.00
2018-03-16T02:57:08.427Z,91.30
2018-03-16T02:59:11.751Z,91.20
2018-03-16T03:01:15.854Z,90.90
2018-03-16T03:03:19.936Z,90.90
2018-03-16T03:05:23.262Z,90.70
2018-03-16T03:07:27.338Z,90.90
2018-03-16T03:09:30.666Z,91.00
2018-03-16T03:11:34.737Z,90.90
2018-03-16T03:13:38.834Z,91.00
2018-03-16T03:15:42.171Z,90.60
2018-03-16T03:17:45.557Z,90.10
2018-03-16T03:19:48.888Z,90.90
2018-03-16T03:21:52.235Z,90.50
2018-03-16T03:23:56.305Z,90.20
2018-03-16T03:25:59.630Z,90.30
2018-03-16T03:28:02.947Z,90.20
2018-03-16T03:30:06.292Z,90.40
2018-03-16T03:32:09.661Z,90.20
2018-03-16T03:34:12.968Z,90.30
2018-03-16T03:36:16.291Z,90.30
2018-03-16T03:38:20.366Z,90.70
2018-03-16T03:40:23.691Z,90.70
2018-03-16T03:42:27.034Z,90.50
2018-03-16T03:44:30.345Z,90.60
2018-03-16T03:46:33.649Z,90.60
2018-03-16T03:48:36.967Z,90.50
2018-03-16T03:50:40.281Z,90.90
2018-03-16T03:52:43.598Z,90.60
2018-03-16T03:54:46.902Z,90.00
2018-03-16T03:56:51.018Z,90.30
2018-03-16T03:58:55.264Z,90.30
2018-03-16T04:00:58.604Z,90.40
2018-03-16T04:03:02.013Z,90.20
2018-03-16T04:05:05.337Z,90.30
2018-03-16T04:07:09.411Z,90.40
2018-03-16T04:09:12.818Z,90.40
2018-03-16T04:11:16.127Z,90.90
2018-03-16T04:13:20.233Z,91.10
2018-03-16T04:15:23.552Z,91.10
2018-03-16T04:17:26.978Z,91.30
2018-03-16T04:19:30.339Z,91.10
2018-03-16T04:21:33.666Z,91.50
2018-03-16T04:23:36.970Z,91.00
2018-03-16T04:25:41.056Z,91.00
2018-03-16T04:27:44.390Z,91.00
2018-03-16T04:29:47.751Z,90.90
2018-03-16T04:31:51.123Z,91.10
2018-03-16T04:33:54.450Z,91.10
2018-03-16T04:35:58.558Z,91.20
2018-03-16T04:38:01.929Z,91.20
2018-03-16T04:40:05.240Z,91.30
2018-03-16T04:42:09.329Z,91.30
2018-03-16T04:44:12.752Z,91.00
2018-03-16T04:46:16.864Z,91.20
2018-03-16T04:48:20.230Z,91.10
2018-03-16T04:50:24.343Z,91.20
2018-03-16T04:52:27.649Z,91.20
2018-03-16T04:54:31.714Z,91.20
2018-03-16T04:56:35.058Z,91.20
2018-03-16T04:58:38.378Z,91.20
2018-03-16T05:00:41.723Z,91.10
2018-03-16T05:02:45.098Z,91.60
2018-03-16T05:04:48.458Z,91.50
2018-03-16T05:06:51.816Z,91.50
2018-03-16T05:08:55.892Z,91.30
2018-03-16T05:10:59.202Z,91.30
2018-03-16T05:13:03.281Z,91.50
2018-03-16T05:15:06.639Z,91.40
2018-03-16T05:17:10.882Z,91.10
2018-03-16T05:19:14.998Z,91.10
2018-03-16T05:21:18.325Z,91.00
2018-03-16T05:23:22.422Z,91.10
2018-03-16T05:25:26.518Z,91.00
2018-03-16T05:27:29.844Z,91.00
2018-03-16T05:29:33.467Z,91.10
2018-03-16T05:31:37.532Z,91.00
2018-03-16T05:33:40.884Z,91.00
2018-03-16T05:35:44.219Z,90.90
2018-03-16T05:37:47.566Z,90.80
2018-03-16T05:39:50.925Z,91.20
2018-03-16T05:41:54.350Z,91.00
2018-03-16T05:43:57.753Z,91.30
2018-03-16T05:46:01.050Z,91.20
2018-03-16T05:48:04.357Z,91.20
2018-03-16T05:50:08.437Z,91.30
2018-03-16T05:52:12.538Z,91.30
2018-03-16T05:54:15.852Z,91.10
2018-03-16T05:56:19.175Z,91.00
2018-03-16T05:58:22.486Z,91.10
2018-03-16T06:00:25.815Z,91.00
2018-03-16T06:02:29.124Z,91.20
2018-03-16T06:04:32.442Z,91.10
2018-03-16T06:06:35.752Z,91.00
2018-03-16T06:08:39.081Z,90.70
2018-03-16T06:10:42.421Z,90.90
2018-03-16T06:12:45.732Z,90.80
2018-03-16T06:14:49.059Z,90.70
2018-03-16T06:16:52.359Z,90.80
2018-03-16T06:18:56.439Z,91.20
2018-03-16T06:20:59.763Z,90.70
2018-03-16T06:23:03.838Z,90.80
2018-03-16T06:25:07.150Z,90.70
2018-03-16T06:27:10.505Z,90.90
2018-03-16T06:29:13.827Z,91.30
2018-03-16T06:31:17.150Z,91.10
2018-03-16T06:33:20.484Z,90.80
2018-03-16T06:35:23.792Z,90.70
2018-03-16T06:37:27.146Z,90.80
2018-03-16T06:39:31.220Z,91.00
2018-03-16T06:41:34.547Z,90.90
2018-03-16T06:43:37.886Z,90.40
2018-03-16T06:45:41.204Z,90.50
2018-03-16T06:47:44.578Z,90.70
2018-03-16T06:49:48.647Z,91.00
2018-03-16T06:51:51.958Z,90.80
2018-03-16T06:53:56.062Z,91.10
2018-03-16T06:55:59.393Z,91.00
2018-03-16T06:58:03.502Z,90.70
2018-03-16T07:00:06.812Z,90.70
2018-03-16T07:02:10.125Z,90.60
2018-03-16T07:04:13.488Z,90.70
2018-03-16T07:06:16.831Z,91.10
2018-03-16T07:08:20.195Z,91.00
2018-03-16T07:10:24.396Z,91.40
2018-03-16T07:12:27.712Z,91.30
2018-03-16T07:14:31.044Z,91.10
2018-03-16T07:16:35.122Z,91.20
2018-03-16T07:18:38.453Z,91.20
2018-03-16T07:20:41.763Z,90.40
2018-03-16T07:22:45.081Z,90.50
2018-03-16T07:24:48.411Z,90.60
2018-03-16T07:26:52.496Z,90.70
2018-03-16T07:28:55.821Z,90.70
2018-03-16T07:30:59.903Z,90.80
2018-03-16T07:33:03.995Z,91.00
2018-03-16T07:35:07.702Z,91.00
2018-03-16T07:37:11.793Z,91.10
2018-03-16T07:39:15.122Z,91.10
2018-03-16T07:41:19.223Z,91.20
2018-03-16T07:43:22.555Z,91.20
2018-03-16T07:45:31.591Z,91.30
2018-03-16T07:47:34.921Z,91.30
2018-03-16T07:49:38.230Z,91.50
2018-03-16T07:51:42.299Z,91.30
2018-03-16T07:53:45.621Z,91.30
2018-03-16T07:55:48.966Z,91.40
2018-03-16T07:57:52.293Z,91.20
2018-03-16T07:59:55.601Z,91.20
2018-03-16T08:01:59.688Z,91.60
2018-03-16T08:04:02.997Z,91.40
2018-03-16T08:06:06.341Z,90.90
2018-03-16T08:08:09.663Z,91.20
2018-03-16T08:10:12.974Z,91.10
2018-03-16T08:12:17.065Z,91.20
2018-03-16T08:14:21.173Z,91.10
2018-03-16T08:16:24.518Z,91.10
2018-03-16T08:18:27.858Z,91.10
2018-03-16T08:20:31.220Z,91.00
2018-03-16T08:22:34.529Z,91.00
2018-03-16T08:24:37.854Z,92.30
2018-03-16T08:26:41.228Z,90.80
2018-03-16T08:28:45.310Z,91.10
2018-03-16T08:30:48.654Z,91.10
2018-03-16T08:32:51.997Z,91.10
2018-03-16T08:34:55.311Z,91.00
2018-03-16T08:36:58.654Z,91.10
2018-03-16T08:39:01.972Z,91.20
2018-03-16T08:41:06.082Z,91.00
2018-03-16T08:43:09.407Z,91.00
2018-03-16T08:45:13.510Z,91.10
2018-03-16T08:47:17.633Z,91.30
2018-03-16T08:49:20.957Z,91.30
2018-03-16T08:51:24.272Z,91.30
2018-03-16T08:53:27.598Z,91.30
2018-03-16T08:55:32.041Z,91.30
2018-03-16T08:57:35.429Z,91.30
2018-03-16T08:59:38.797Z,92.00
2018-03-16T09:01:42.143Z,91.40
2018-03-16T09:03:45.471Z,91.40
2018-03-16T09:05:49.573Z,91.10
2018-03-16T09:07:52.986Z,91.10
2018-03-16T09:09:56.584Z,91.30
2018-03-16T09:11:59.954Z,91.40
2018-03-16T09:14:03.290Z,91.30
2018-03-16T09:16:06.618Z,91.70
2018-03-16T09:18:10.049Z,91.40
2018-03-16T09:20:13.346Z,91.50
2018-03-16T09:22:16.687Z,91.60
2018-03-16T09:24:20.003Z,91.30
2018-03-16T09:26:24.121Z,91.20
2018-03-16T09:28:28.248Z,91.50
2018-03-16T09:30:31.573Z,91.50
2018-03-16T09:32:34.896Z,91.50
2018-03-16T09:34:39.013Z,91.60
2018-03-16T09:36:42.377Z,91.60
2018-03-16T09:38:45.735Z,91.80
2018-03-16T09:40:49.072Z,91.40
2018-03-16T09:42:52.410Z,90.80
2018-03-16T09:44:55.757Z,91.20
2018-03-16T09:46:59.078Z,91.30
2018-03-16T09:49:02.430Z,91.40
2018-03-16T09:51:06.542Z,91.40
2018-03-16T09:53:09.871Z,91.40
2018-03-16T09:57:53.830Z,90.00
2018-03-16T09:59:57.198Z,90.00
2018-03-16T10:02:00.506Z,90.50
2018-03-16T10:04:03.852Z,90.80
2018-03-16T10:06:07.219Z,90.30
2018-03-16T10:08:10.560Z,90.30
2018-03-16T10:10:13.872Z,89.30
2018-03-16T10:12:17.218Z,89.70
2018-03-16T10:14:20.541Z,88.80
2018-03-16T10:16:24.666Z,88.40
2018-03-16T10:18:28.017Z,88.40
2018-03-16T10:20:31.380Z,89.50
2018-03-16T10:22:35.453Z,86.70
2018-03-16T10:24:38.785Z,86.70
2018-03-16T10:26:42.175Z,87.90
2018-03-16T10:28:45.493Z,87.00
2018-03-16T10:30:48.866Z,86.50
2018-03-16T10:32:52.214Z,87.80
2018-03-16T10:34:55.560Z,87.10
2018-03-16T10:36:58.910Z,85.40
2018-03-16T10:39:02.260Z,85.40
2018-03-16T10:41:06.365Z,85.90
2018-03-16T10:43:10.511Z,85.10
2018-03-16T10:45:13.818Z,85.10
2018-03-16T10:47:17.159Z,85.10
2018-03-16T10:49:20.475Z,87.60
2018-03-16T10:51:24.563Z,84.30
2018-03-16T10:53:27.926Z,84.70
2018-03-16T10:55:31.241Z,85.80
2018-03-16T10:57:34.622Z,85.40
2018-03-16T10:59:37.983Z,85.00
2018-03-16T11:01:46.858Z,83.60
2018-03-16T11:03:51.335Z,84.30
2018-03-16T11:05:54.785Z,82.90
2018-03-16T11:07:58.165Z,83.60
2018-03-16T11:10:02.264Z,82.90
2018-03-16T11:12:05.639Z,83.00
2018-03-16T11:14:09.011Z,82.50
2018-03-16T11:16:12.349Z,81.10
2018-03-16T11:18:16.486Z,79.40
2018-03-16T11:20:19.799Z,79.20
2018-03-16T11:22:23.127Z,78.30
2018-03-16T11:24:26.493Z,79.70
2018-03-16T11:26:29.809Z,80.70
2018-03-16T11:28:33.154Z,80.10
2018-03-16T11:30:36.485Z,80.30
2018-03-16T11:32:39.834Z,79.50
2018-03-16T11:34:43.202Z,79.90
2018-03-16T11:36:47.307Z,79.50
2018-03-16T11:38:50.651Z,79.60
2018-03-16T11:40:54.031Z,79.40
2018-03-16T11:42:57.358Z,79.50
2018-03-16T11:45:00.699Z,82.90
2018-03-16T11:47:04.041Z,81.40
2018-03-16T11:49:07.415Z,84.80
2018-03-16T11:51:10.761Z,84.60
2018-03-16T11:53:14.121Z,84.60
2018-03-16T11:55:17.421Z,85.30
2018-03-16T11:57:21.498Z,86.60
2018-03-16T11:59:24.823Z,86.30
2018-03-16T12:01:28.930Z,86.20
2018-03-16T12:03:33.008Z,85.80
2018-03-16T12:05:36.395Z,85.80
2018-03-16T12:07:39.716Z,85.60
2018-03-16T12:09:43.793Z,85.40
2018-03-16T12:11:47.142Z,85.40
2018-03-16T12:13:50.512Z,86.20
2018-03-16T12:15:54.591Z,87.90
2018-03-16T12:17:57.954Z,87.90
2018-03-16T12:20:01.339Z,88.50
2018-03-16T12:22:04.717Z,88.20
2018-03-16T12:24:08.925Z,87.60
2018-03-16T12:26:12.258Z,87.50
2018-03-16T12:28:15.616Z,89.40
2018-03-16T12:30:18.964Z,86.70
2018-03-16T12:32:22.328Z,89.70
2018-03-16T12:34:25.800Z,90.00
2018-03-16T12:36:29.196Z,80.40
2018-03-16T12:38:32.547Z,82.60
2018-03-16T12:40:36.642Z,85.20
2018-03-16T12:42:39.984Z,85.30
2018-03-16T12:44:43.383Z,83.80
2018-03-16T12:46:46.702Z,82.00
2018-03-16T12:48:50.076Z,79.40
2018-03-16T12:50:53.506Z,72.90
2018-03-16T12:52:56.826Z,71.50
2018-03-16T12:55:00.981Z,77.50
2018-03-16T12:57:04.316Z,78.80
2018-03-16T12:59:08.032Z,77.40
2018-03-16T13:01:11.364Z,77.90
2018-03-16T13:03:14.755Z,75.00
2018-03-16T13:05:18.133Z,71.80
2018-03-16T13:07:21.481Z,75.40
2018-03-16T13:09:25.894Z,74.10
2018-03-16T13:11:30.134Z,74.10
2018-03-16T13:13:33.569Z,74.00
2018-03-16T13:15:37.798Z,73.70
2018-03-16T13:17:41.933Z,73.10
2018-03-16T13:19:45.284Z,73.20
2018-03-16T13:21:48.686Z,75.00
2018-03-16T13:23:52.027Z,75.30
2018-03-16T13:25:55.345Z,67.80
2018-03-16T13:27:58.717Z,65.60
2018-03-16T13:30:02.485Z,70.80
2018-03-16T13:32:05.881Z,69.70
2018-03-16T13:34:09.656Z,69.40
2018-03-16T13:36:13.081Z,67.30
2018-03-16T13:38:16.423Z,54.60
2018-03-16T13:40:19.762Z,50.50
2018-03-16T13:42:23.125Z,47.90
2018-03-16T13:44:27.232Z,50.90
2018-03-16T13:46:31.321Z,40.40
2018-03-16T13:48:34.670Z,40.30
2018-03-16T13:50:37.997Z,41.90
2018-03-16T13:52:41.325Z,40.10
2018-03-16T13:54:45.423Z,39.80
2018-03-16T13:56:49.650Z,39.90
2018-03-16T13:58:53.942Z,42.20
2018-03-16T14:00:57.258Z,42.10
2018-03-16T14:03:01.346Z,40.00
2018-03-16T14:05:04.710Z,39.90
2018-03-16T14:07:08.057Z,41.80
2018-03-16T14:09:11.382Z,46.20
2018-03-16T14:11:14.715Z,38.80
2018-03-16T14:13:18.085Z,46.20
2018-03-16T14:15:21.454Z,40.50
2018-03-16T14:17:24.768Z,48.50
2018-03-16T14:19:28.134Z,38.60
2018-03-16T14:21:34.150Z,38.90
2018-03-16T14:23:38.553Z,42.20
2018-03-16T14:25:41.922Z,42.50
2018-03-16T14:27:45.302Z,42.50
2018-03-16T14:29:48.624Z,44.40
2018-03-16T14:31:51.940Z,43.60
2018-03-16T14:33:56.180Z,49.70
2018-03-16T14:36:00.341Z,51.70
2018-03-16T14:38:04.451Z,54.80
2018-03-16T14:40:08.593Z,51.70
2018-03-16T14:42:12.165Z,51.60
2018-03-16T14:44:15.506Z,53.20
2018-03-16T14:46:18.845Z,56.30
2018-03-16T14:48:22.954Z,55.80
2018-03-16T14:50:27.124Z,55.70
2018-03-16T14:52:30.457Z,55.50
2018-03-16T14:54:34.576Z,54.70
2018-03-16T14:56:38.814Z,54.50
2018-03-16T14:58:42.135Z,54.70
2018-03-16T15:00:45.527Z,55.20
2018-03-16T15:02:48.881Z,55.90
2018-03-16T15:04:52.237Z,56.70
2018-03-16T15:06:55.568Z,60.00
2018-03-16T15:08:59.655Z,59.00
2018-03-16T15:11:03.006Z,59.00
2018-03-16T15:13:06.366Z,59.40
2018-03-16T15:15:09.711Z,60.40
2018-03-16T15:17:13.809Z,54.40
2018-03-16T15:19:17.177Z,54.60
2018-03-16T15:21:20.613Z,53.90
2018-03-16T15:23:23.972Z,52.60
2018-03-16T15:25:27.313Z,47.50
2018-03-16T15:27:30.631Z,41.30
2018-03-16T15:29:33.960Z,38.50
2018-03-16T15:31:37.272Z,38.00
2018-03-16T15:33:41.396Z,24.90
2018-03-16T15:35:44.740Z,25.00
2018-03-16T15:37:48.083Z,22.60
2018-03-16T15:39:51.434Z,21.20
2018-03-16T15:41:54.788Z,24.10
2018-03-16T15:43:58.137Z,21.20
2018-03-16T15:46:02.227Z,18.20
2018-03-16T15:48:05.642Z,18.40
2018-03-16T15:50:09.003Z,16.70
2018-03-16T15:52:12.355Z,19.50
2018-03-16T15:54:15.678Z,20.00
2018-03-16T15:56:19.012Z,8.50
2018-03-16T15:58:22.345Z,13.20
2018-03-16T16:00:25.697Z,12.30
2018-03-16T16:02:29.042Z,8.90
2018-03-16T16:04:32.378Z,12.60
2018-03-16T16:06:35.778Z,13.40
2018-03-16T16:08:39.102Z,14.90
2018-03-16T16:10:42.427Z,14.40
2018-03-16T16:12:45.766Z,15.30
2018-03-16T16:14:49.143Z,15.90
2018-03-16T16:16:52.506Z,17.40
2018-03-16T16:18:56.750Z,18.10
2018-03-16T16:21:00.967Z,18.30
2018-03-16T16:23:05.742Z,19.90
2018-03-16T16:25:09.205Z,20.00
2018-03-16T16:27:12.548Z,23.20
2018-03-16T16:29:15.927Z,22.70
2018-03-16T16:31:19.386Z,24.90
2018-03-16T16:33:22.881Z,23.60
2018-03-16T16:35:26.257Z,23.20
2018-03-16T16:37:29.758Z,26.00
2018-03-16T16:39:33.244Z,24.70
2018-03-16T16:41:36.599Z,23.10
2018-03-16T16:43:40.608Z,23.90
2018-03-16T16:45:44.320Z,25.60
2018-03-16T16:47:47.897Z,25.70
2018-03-16T16:49:52.283Z,25.50
2018-03-16T16:51:56.512Z,25.50
2018-03-16T16:54:00.767Z,24.50
2018-03-16T16:56:05.305Z,24.60
2018-03-16T16:58:08.681Z,26.00
2018-03-16T17:00:12.211Z,17.10
2018-03-16T17:02:16.017Z,15.10
2018-03-16T17:04:20.003Z,13.50
2018-03-16T17:06:23.525Z,16.50
2018-03-16T17:08:27.406Z,16.30
2018-03-16T17:10:30.798Z,19.00
2018-03-16T17:12:35.069Z,17.10
2018-03-16T17:14:40.967Z,18.80
2018-03-16T17:16:45.863Z,18.80
2018-03-16T17:18:49.237Z,18.80
2018-03-16T17:20:52.780Z,20.20
2018-03-16T17:22:57.209Z,18.20
2018-03-16T17:25:01.582Z,18.70
2018-03-16T17:27:05.254Z,19.60
2018-03-16T17:29:09.564Z,20.30
2018-03-16T17:31:12.933Z,21.00
2018-03-16T17:33:16.328Z,21.40
2018-03-16T17:35:19.734Z,22.70
2018-03-16T17:37:23.861Z,21.60
2018-03-16T17:39:27.250Z,21.50
2018-03-16T17:41:31.448Z,22.60
2018-03-16T17:43:35.760Z,22.50
2018-03-16T17:45:39.907Z,24.40
2018-03-16T17:47:43.325Z,24.50
2018-03-16T17:49:46.908Z,25.60
2018-03-16T17:51:51.257Z,26.30
2018-03-16T17:53:57.158Z,26.60
2018-03-16T17:56:00.978Z,28.00
2018-03-16T17:58:04.384Z,28.50
2018-03-16T18:00:07.723Z,30.50
2018-03-16T18:02:11.110Z,32.20
2018-03-16T18:04:15.453Z,30.50
2018-03-16T18:06:19.683Z,30.70
2018-03-16T18:08:23.076Z,33.30
2018-03-16T18:10:26.406Z,34.60
2018-03-16T18:12:30.554Z,44.60
2018-03-16T18:14:33.940Z,43.90
2018-03-16T18:16:38.046Z,45.50
2018-03-16T18:18:42.260Z,46.60
2018-03-16T18:20:46.350Z,45.60
2018-03-16T18:22:50.479Z,43.90
2018-03-16T18:24:54.629Z,42.10
2018-03-16T18:26:58.002Z,42.00
2018-03-16T18:29:02.299Z,41.10
2018-03-16T18:31:06.397Z,41.70
2018-03-16T18:33:10.043Z,41.70
2018-03-16T18:35:13.481Z,44.70
2018-03-16T18:37:17.594Z,44.60
2018-03-16T18:39:21.829Z,45.00
2018-03-16T18:41:25.258Z,45.00
2018-03-16T18:43:29.404Z,45.70
2018-03-16T18:45:32.888Z,45.60
2018-03-16T18:47:36.257Z,48.30
2018-03-16T18:49:39.615Z,47.70
2018-03-16T18:51:43.020Z,47.90
2018-03-16T18:53:46.417Z,46.50
2018-03-16T18:55:49.793Z,46.60
2018-03-16T18:57:53.182Z,47.70
2018-03-16T18:59:56.527Z,50.90
2018-03-16T19:01:59.883Z,51.10
2018-03-16T19:04:03.240Z,51.70
2018-03-16T19:06:07.590Z,50.50
2018-03-16T19:08:11.541Z,50.50
2018-03-16T19:10:14.919Z,52.50
2018-03-16T19:12:20.835Z,53.80
2018-03-16T19:14:25.051Z,53.90
2018-03-16T19:16:29.315Z,52.40
2018-03-16T19:18:33.618Z,53.20
2018-03-16T19:20:38.292Z,54.80
2018-03-16T19:22:41.637Z,56.70
2018-03-16T19:24:45.923Z,55.30
2018-03-16T19:26:49.526Z,56.00
2018-03-16T19:28:52.946Z,56.50
2018-03-16T19:30:57.090Z,57.10
2018-03-16T19:33:00.478Z,56.90
2018-03-16T19:35:04.751Z,57.50
2018-03-16T19:37:08.107Z,58.20
2018-03-16T19:39:13.853Z,58.40
2018-03-16T19:41:17.964Z,58.80
2018-03-16T19:43:21.401Z,59.40
2018-03-16T19:45:24.712Z,60.90
2018-03-16T19:47:28.171Z,61.10
2018-03-16T19:49:31.551Z,61.80
2018-03-16T19:51:34.884Z,63.00
2018-03-16T19:53:38.301Z,65.10
2018-03-16T19:55:41.628Z,63.50
2018-03-16T19:57:45.017Z,64.30
2018-03-16T19:59:48.378Z,64.70
2018-03-16T20:01:51.751Z,65.60
2018-03-16T20:03:55.883Z,66.70
2018-03-16T20:06:01.885Z,67.90
2018-03-16T20:08:05.585Z,67.20
2018-03-16T20:10:08.928Z,67.30
2018-03-16T20:12:12.294Z,67.80
2018-03-16T20:14:15.734Z,67.10
2018-03-16T20:16:20.702Z,67.80
2018-03-16T20:18:25.170Z,67.00
2018-03-16T20:20:28.561Z,66.60
2018-03-16T20:22:32.668Z,67.40
2018-03-16T20:24:36.934Z,67.20
2018-03-16T20:26:41.370Z,69.40
2018-03-16T20:28:45.527Z,71.30
2018-03-16T20:30:48.872Z,71.30
2018-03-16T20:32:52.965Z,71.40
2018-03-16T20:34:57.179Z,69.90
2018-03-16T20:37:01.259Z,69.90
2018-03-16T20:39:04.729Z,73.30
2018-03-16T20:41:08.072Z,72.60
2018-03-16T20:43:12.359Z,74.20
2018-03-16T20:45:15.792Z,74.30
2018-03-16T20:47:19.194Z,74.90
2018-03-16T20:49:22.633Z,75.30
2018-03-16T20:51:26.019Z,77.50
2018-03-16T20:53:29.533Z,74.70
2018-03-16T20:55:33.619Z,76.10
2018-03-16T20:57:36.992Z,75.00
2018-03-16T20:59:40.389Z,75.60
2018-03-16T21:01:44.618Z,77.20
2018-03-16T21:03:48.144Z,76.30
2018-03-16T21:05:51.492Z,76.00
2018-03-16T21:07:54.864Z,76.80
2018-03-16T21:09:58.234Z,77.50
2018-03-16T21:12:02.479Z,76.30
2018-03-16T21:14:05.978Z,76.40
2018-03-16T21:16:09.373Z,77.50
2018-03-16T21:18:12.970Z,78.70
2018-03-16T21:20:18.054Z,78.50
2018-03-16T21:22:21.493Z,78.60
2018-03-16T21:24:24.899Z,79.80
2018-03-16T21:26:28.541Z,80.80
2018-03-16T21:28:32.863Z,82.30
2018-03-16T21:30:36.963Z,82.60
2018-03-16T21:32:41.272Z,82.60
2018-03-16T21:34:44.647Z,83.00
2018-03-16T21:36:48.179Z,83.20
2018-03-16T21:38:51.741Z,83.40
2018-03-16T21:40:55.352Z,83.30
2018-03-16T21:42:58.728Z,83.30
2018-03-16T21:45:03.810Z,83.00
2018-03-16T21:47:09.248Z,83.00
2018-03-16T21:49:12.608Z,83.10
2018-03-16T21:51:26.695Z,83.40
2018-03-16T21:56:47.571Z,85.20
2018-03-16T21:58:51.753Z,86.00
2018-03-16T22:00:55.892Z,85.70
2018-03-16T22:03:00.075Z,85.80
2018-03-16T22:05:03.505Z,85.70
2018-03-16T22:07:07.822Z,85.90
2018-03-16T22:09:11.242Z,86.10
2018-03-16T22:11:14.613Z,87.60
2018-03-16T22:13:17.973Z,87.60
2018-03-16T22:15:21.344Z,87.70
2018-03-16T22:17:24.784Z,88.20
2018-03-16T22:19:28.196Z,88.50
2018-03-16T22:21:32.163Z,88.10
2018-03-16T22:23:36.527Z,88.30
2018-03-16T22:25:39.908Z,88.30
2018-03-16T22:27:43.237Z,88.80
2018-03-16T22:29:46.601Z,90.50
2018-03-16T22:31:50.012Z,91.40
2018-03-16T22:33:54.106Z,91.30
2018-03-16T22:38:33.170Z,91.00
2018-03-16T22:40:36.513Z,90.90
2018-03-16T22:42:41.263Z,90.70
2018-03-16T22:44:44.763Z,91.20
2018-03-16T22:46:48.153Z,92.10
2018-03-16T22:48:51.549Z,92.40
2018-03-16T22:50:54.921Z,92.90
2018-03-16T22:52:58.281Z,93.20
2018-03-16T22:55:03.495Z,93.50
2018-03-16T22:57:07.779Z,93.40
2018-03-16T22:59:11.310Z,93.40
2018-03-16T23:01:14.746Z,93.50
2018-03-16T23:03:20.026Z,93.50
2018-03-16T23:05:24.809Z,93.80
2018-03-16T23:07:28.210Z,93.40
2018-03-16T23:09:31.566Z,93.50
2018-03-16T23:11:34.933Z,93.50
2018-03-16T23:13:38.293Z,93.50
2018-03-16T23:15:42.948Z,93.40
2018-03-16T23:17:46.340Z,93.30
2018-03-16T23:19:49.723Z,93.10
2018-03-16T23:21:53.902Z,93.30
2018-03-16T23:23:58.015Z,93.00
2018-03-16T23:26:01.363Z,93.00
2018-03-16T23:28:05.453Z,92.80
2018-03-16T23:30:09.578Z,93.00
2018-03-16T23:32:13.677Z,93.00
2018-03-16T23:34:16.996Z,93.00
2018-03-16T23:36:20.441Z,92.90
2018-03-16T23:38:23.785Z,92.60
2018-03-16T23:40:28.812Z,93.00
2018-03-16T23:42:32.922Z,93.10
2018-03-16T23:44:37.042Z,93.10
2018-03-16T23:46:41.004Z,93.10
2018-03-16T23:48:46.907Z,93.20
2018-03-16T23:50:50.337Z,92.90
2018-03-16T23:52:54.198Z,92.70
2018-03-16T23:54:57.563Z,92.50
2018-03-16T23:57:00.938Z,92.40
2018-03-16T23:59:04.270Z,92.40
